sensor_id;sensor_type;location;lat;lon;timestamp;P1;durP1;ratioP1;P2;durP2;ratioP2
12271;SDS011;6198;51.446;6.698;2023-05-31T00:00:12;11.10;;;8.43;;
12271;SDS011;6198;51.446;6.698;2023-05-31T00:02:38;10.07;;;9.07;;
12271;SDS011;6198;51.446;6.698;2023-05-31T00:05:05;10.43;;;8.20;;
12271;SDS011;6198;51.446;6.698;2023-05-31T00:07:31;10.50;;;9.10;;
12271;SDS011;6198;51.446;6.698;2023-05-31T00:09:57;11.10;;;8.63;;
12271;SDS011;6198;51.446;6.698;2023-05-31T00:12:23;9.20;;;8.30;;
12271;SDS011;6198;51.446;6.698;2023-05-31T00:14:49;9.93;;;8.93;;
12271;SDS011;6198;51.446;6.698;2023-05-31T00:17:14;9.13;;;8.23;;
12271;SDS011;6198;51.446;6.698;2023-05-31T00:19:40;10.03;;;8.57;;
12271;SDS011;6198;51.446;6.698;2023-05-31T00:22:06;11.57;;;8.30;;
12271;SDS011;6198;51.446;6.698;2023-05-31T00:24:32;9.57;;;8.50;;
12271;SDS011;6198;51.446;6.698;2023-05-31T00:26:58;8.53;;;7.73;;
12271;SDS011;6198;51.446;6.698;2023-05-31T00:29:25;9.50;;;8.50;;
12271;SDS011;6198;51.446;6.698;2023-05-31T00:31:51;9.70;;;8.70;;
12271;SDS011;6198;51.446;6.698;2023-05-31T00:34:17;11.10;;;8.70;;
12271;SDS011;6198;51.446;6.698;2023-05-31T00:36:43;10.40;;;8.47;;
12271;SDS011;6198;51.446;6.698;2023-05-31T00:39:09;9.63;;;8.13;;
12271;SDS011;6198;51.446;6.698;2023-05-31T00:41:35;9.20;;;7.83;;
12271;SDS011;6198;51.446;6.698;2023-05-31T00:44:01;9.60;;;8.53;;
12271;SDS011;6198;51.446;6.698;2023-05-31T00:46:35;10.67;;;8.03;;
12271;SDS011;6198;51.446;6.698;2023-05-31T00:49:02;14.27;;;9.10;;
12271;SDS011;6198;51.446;6.698;2023-05-31T00:51:28;10.87;;;9.53;;
12271;SDS011;6198;51.446;6.698;2023-05-31T00:53:56;12.33;;;10.00;;
12271;SDS011;6198;51.446;6.698;2023-05-31T00:56:22;18.20;;;13.83;;
12271;SDS011;6198;51.446;6.698;2023-05-31T00:58:49;12.87;;;11.33;;
12271;SDS011;6198;51.446;6.698;2023-05-31T01:01:17;20.83;;;16.80;;
12271;SDS011;6198;51.446;6.698;2023-05-31T01:03:43;16.43;;;14.67;;
12271;SDS011;6198;51.446;6.698;2023-05-31T01:06:09;19.80;;;14.60;;
12271;SDS011;6198;51.446;6.698;2023-05-31T01:08:36;14.90;;;12.43;;
12271;SDS011;6198;51.446;6.698;2023-05-31T01:11:08;17.07;;;12.40;;
12271;SDS011;6198;51.446;6.698;2023-05-31T01:13:42;13.93;;;10.20;;
12271;SDS011;6198;51.446;6.698;2023-05-31T01:18:37;10.77;;;8.03;;
12271;SDS011;6198;51.446;6.698;2023-05-31T01:21:06;10.13;;;8.87;;
12271;SDS011;6198;51.446;6.698;2023-05-31T01:26:20;9.20;;;8.40;;
12271;SDS011;6198;51.446;6.698;2023-05-31T01:28:50;9.67;;;8.67;;
12271;SDS011;6198;51.446;6.698;2023-05-31T01:31:18;10.03;;;8.47;;
12271;SDS011;6198;51.446;6.698;2023-05-31T01:33:45;10.63;;;8.83;;
12271;SDS011;6198;51.446;6.698;2023-05-31T01:36:12;10.03;;;9.03;;
12271;SDS011;6198;51.446;6.698;2023-05-31T01:38:38;11.57;;;8.57;;
12271;SDS011;6198;51.446;6.698;2023-05-31T01:41:04;9.37;;;8.43;;
12271;SDS011;6198;51.446;6.698;2023-05-31T01:43:31;10.07;;;8.90;;
12271;SDS011;6198;51.446;6.698;2023-05-31T01:45:57;11.40;;;9.03;;
12271;SDS011;6198;51.446;6.698;2023-05-31T01:48:23;10.77;;;9.10;;
12271;SDS011;6198;51.446;6.698;2023-05-31T01:50:50;12.50;;;9.37;;
12271;SDS011;6198;51.446;6.698;2023-05-31T01:53:16;9.87;;;8.83;;
12271;SDS011;6198;51.446;6.698;2023-05-31T01:55:42;10.27;;;8.80;;
12271;SDS011;6198;51.446;6.698;2023-05-31T01:58:09;12.30;;;9.23;;
12271;SDS011;6198;51.446;6.698;2023-05-31T02:00:35;14.43;;;9.20;;
12271;SDS011;6198;51.446;6.698;2023-05-31T02:03:01;10.93;;;9.57;;
12271;SDS011;6198;51.446;6.698;2023-05-31T02:05:28;9.90;;;8.90;;
12271;SDS011;6198;51.446;6.698;2023-05-31T02:07:54;10.73;;;9.63;;
12271;SDS011;6198;51.446;6.698;2023-05-31T02:10:20;12.63;;;9.73;;
12271;SDS011;6198;51.446;6.698;2023-05-31T02:12:46;16.27;;;9.80;;
12271;SDS011;6198;51.446;6.698;2023-05-31T02:15:16;10.87;;;9.87;;
12271;SDS011;6198;51.446;6.698;2023-05-31T02:17:44;14.93;;;9.50;;
12271;SDS011;6198;51.446;6.698;2023-05-31T02:20:12;9.63;;;8.57;;
12271;SDS011;6198;51.446;6.698;2023-05-31T02:22:42;10.70;;;9.60;;
12271;SDS011;6198;51.446;6.698;2023-05-31T02:25:09;12.43;;;9.83;;
12271;SDS011;6198;51.446;6.698;2023-05-31T02:27:35;10.83;;;9.70;;
12271;SDS011;6198;51.446;6.698;2023-05-31T02:30:01;10.60;;;9.50;;
12271;SDS011;6198;51.446;6.698;2023-05-31T02:32:29;11.00;;;9.93;;
12271;SDS011;6198;51.446;6.698;2023-05-31T02:34:56;11.67;;;9.87;;
12271;SDS011;6198;51.446;6.698;2023-05-31T02:37:22;12.10;;;9.47;;
12271;SDS011;6198;51.446;6.698;2023-05-31T02:39:48;11.73;;;9.47;;
12271;SDS011;6198;51.446;6.698;2023-05-31T02:42:14;10.37;;;9.07;;
12271;SDS011;6198;51.446;6.698;2023-05-31T02:44:40;11.60;;;10.23;;
12271;SDS011;6198;51.446;6.698;2023-05-31T02:47:06;12.87;;;10.60;;
12271;SDS011;6198;51.446;6.698;2023-05-31T02:49:32;13.20;;;10.17;;
12271;SDS011;6198;51.446;6.698;2023-05-31T02:51:58;11.37;;;10.07;;
12271;SDS011;6198;51.446;6.698;2023-05-31T02:54:23;10.80;;;9.70;;
12271;SDS011;6198;51.446;6.698;2023-05-31T02:56:49;11.60;;;8.97;;
12271;SDS011;6198;51.446;6.698;2023-05-31T02:59:16;11.33;;;10.13;;
12271;SDS011;6198;51.446;6.698;2023-05-31T03:01:42;12.03;;;10.30;;
12271;SDS011;6198;51.446;6.698;2023-05-31T03:04:08;11.80;;;10.10;;
12271;SDS011;6198;51.446;6.698;2023-05-31T03:06:34;14.03;;;10.30;;
12271;SDS011;6198;51.446;6.698;2023-05-31T03:09:00;11.47;;;9.90;;
12271;SDS011;6198;51.446;6.698;2023-05-31T03:11:26;11.87;;;10.37;;
12271;SDS011;6198;51.446;6.698;2023-05-31T03:13:52;11.90;;;10.70;;
12271;SDS011;6198;51.446;6.698;2023-05-31T03:16:17;11.57;;;10.27;;
12271;SDS011;6198;51.446;6.698;2023-05-31T03:18:45;11.80;;;10.50;;
12271;SDS011;6198;51.446;6.698;2023-05-31T03:21:11;13.00;;;11.03;;
12271;SDS011;6198;51.446;6.698;2023-05-31T03:23:37;14.53;;;11.40;;
12271;SDS011;6198;51.446;6.698;2023-05-31T03:26:03;16.60;;;11.63;;
12271;SDS011;6198;51.446;6.698;2023-05-31T03:28:29;19.77;;;12.13;;
12271;SDS011;6198;51.446;6.698;2023-05-31T03:30:55;16.33;;;11.50;;
12271;SDS011;6198;51.446;6.698;2023-05-31T03:33:21;16.33;;;12.57;;
12271;SDS011;6198;51.446;6.698;2023-05-31T03:35:47;15.57;;;12.23;;
12271;SDS011;6198;51.446;6.698;2023-05-31T03:38:13;14.10;;;11.17;;
12271;SDS011;6198;51.446;6.698;2023-05-31T03:40:39;13.77;;;11.27;;
12271;SDS011;6198;51.446;6.698;2023-05-31T03:43:05;15.57;;;11.63;;
12271;SDS011;6198;51.446;6.698;2023-05-31T03:45:31;14.57;;;11.13;;
12271;SDS011;6198;51.446;6.698;2023-05-31T03:47:57;16.07;;;11.60;;
12271;SDS011;6198;51.446;6.698;2023-05-31T03:50:23;13.13;;;11.07;;
12271;SDS011;6198;51.446;6.698;2023-05-31T03:52:49;15.37;;;11.63;;
12271;SDS011;6198;51.446;6.698;2023-05-31T03:55:15;14.10;;;11.77;;
12271;SDS011;6198;51.446;6.698;2023-05-31T03:57:41;14.17;;;11.87;;
12271;SDS011;6198;51.446;6.698;2023-05-31T04:00:07;11.87;;;10.67;;
12271;SDS011;6198;51.446;6.698;2023-05-31T04:02:36;16.33;;;11.47;;
12271;SDS011;6198;51.446;6.698;2023-05-31T04:05:02;13.90;;;11.77;;
12271;SDS011;6198;51.446;6.698;2023-05-31T04:07:29;13.40;;;11.90;;
12271;SDS011;6198;51.446;6.698;2023-05-31T04:09:55;15.17;;;12.47;;
12271;SDS011;6198;51.446;6.698;2023-05-31T04:12:21;16.23;;;13.00;;
12271;SDS011;6198;51.446;6.698;2023-05-31T04:14:47;14.70;;;12.50;;
12271;SDS011;6198;51.446;6.698;2023-05-31T04:17:13;13.50;;;12.10;;
12271;SDS011;6198;51.446;6.698;2023-05-31T04:19:39;16.87;;;12.40;;
12271;SDS011;6198;51.446;6.698;2023-05-31T04:22:05;17.67;;;13.57;;
12271;SDS011;6198;51.446;6.698;2023-05-31T04:24:31;20.23;;;13.23;;
12271;SDS011;6198;51.446;6.698;2023-05-31T04:26:57;13.80;;;11.83;;
12271;SDS011;6198;51.446;6.698;2023-05-31T04:29:23;14.97;;;12.13;;
12271;SDS011;6198;51.446;6.698;2023-05-31T04:31:51;16.63;;;12.70;;
12271;SDS011;6198;51.446;6.698;2023-05-31T04:34:17;17.60;;;13.20;;
12271;SDS011;6198;51.446;6.698;2023-05-31T04:36:43;16.57;;;13.57;;
12271;SDS011;6198;51.446;6.698;2023-05-31T04:39:13;17.90;;;13.63;;
12271;SDS011;6198;51.446;6.698;2023-05-31T04:41:40;20.30;;;14.07;;
12271;SDS011;6198;51.446;6.698;2023-05-31T04:44:06;19.03;;;14.80;;
12271;SDS011;6198;51.446;6.698;2023-05-31T04:46:32;17.80;;;13.10;;
12271;SDS011;6198;51.446;6.698;2023-05-31T04:48:58;17.23;;;12.83;;
12271;SDS011;6198;51.446;6.698;2023-05-31T04:51:25;23.03;;;12.33;;
12271;SDS011;6198;51.446;6.698;2023-05-31T04:53:51;18.93;;;11.93;;
12271;SDS011;6198;51.446;6.698;2023-05-31T04:56:17;13.80;;;11.30;;
12271;SDS011;6198;51.446;6.698;2023-05-31T04:58:43;20.20;;;11.43;;
12271;SDS011;6198;51.446;6.698;2023-05-31T05:01:10;15.80;;;11.00;;
12271;SDS011;6198;51.446;6.698;2023-05-31T05:03:40;19.13;;;10.83;;
12271;SDS011;6198;51.446;6.698;2023-05-31T05:06:15;11.30;;;10.10;;
12271;SDS011;6198;51.446;6.698;2023-05-31T05:08:42;12.80;;;10.10;;
12271;SDS011;6198;51.446;6.698;2023-05-31T05:11:08;16.80;;;11.07;;
12271;SDS011;6198;51.446;6.698;2023-05-31T05:13:34;20.43;;;11.40;;
12271;SDS011;6198;51.446;6.698;2023-05-31T05:16:00;16.57;;;12.53;;
12271;SDS011;6198;51.446;6.698;2023-05-31T05:18:27;19.43;;;12.77;;
12271;SDS011;6198;51.446;6.698;2023-05-31T05:20:53;20.13;;;13.07;;
12271;SDS011;6198;51.446;6.698;2023-05-31T05:23:19;17.07;;;13.77;;
12271;SDS011;6198;51.446;6.698;2023-05-31T05:25:46;18.83;;;12.93;;
12271;SDS011;6198;51.446;6.698;2023-05-31T05:28:12;21.00;;;12.60;;
12271;SDS011;6198;51.446;6.698;2023-05-31T05:30:38;19.63;;;13.33;;
12271;SDS011;6198;51.446;6.698;2023-05-31T05:33:03;20.27;;;13.50;;
12271;SDS011;6198;51.446;6.698;2023-05-31T05:35:29;19.23;;;13.63;;
12271;SDS011;6198;51.446;6.698;2023-05-31T05:37:56;17.90;;;12.10;;
12271;SDS011;6198;51.446;6.698;2023-05-31T05:40:22;15.03;;;11.37;;
12271;SDS011;6198;51.446;6.698;2023-05-31T05:42:49;17.00;;;11.70;;
12271;SDS011;6198;51.446;6.698;2023-05-31T05:45:15;21.30;;;10.80;;
12271;SDS011;6198;51.446;6.698;2023-05-31T05:47:41;18.67;;;10.93;;
12271;SDS011;6198;51.446;6.698;2023-05-31T05:50:10;13.10;;;10.23;;
12271;SDS011;6198;51.446;6.698;2023-05-31T05:52:36;20.00;;;11.27;;
12271;SDS011;6198;51.446;6.698;2023-05-31T05:55:02;16.20;;;10.93;;
12271;SDS011;6198;51.446;6.698;2023-05-31T05:57:29;18.20;;;11.23;;
12271;SDS011;6198;51.446;6.698;2023-05-31T05:59:55;13.33;;;11.37;;
12271;SDS011;6198;51.446;6.698;2023-05-31T06:02:21;18.03;;;11.77;;
12271;SDS011;6198;51.446;6.698;2023-05-31T06:04:47;18.07;;;11.73;;
12271;SDS011;6198;51.446;6.698;2023-05-31T06:07:14;19.40;;;11.90;;
12271;SDS011;6198;51.446;6.698;2023-05-31T06:09:40;26.20;;;15.60;;
12271;SDS011;6198;51.446;6.698;2023-05-31T06:12:07;25.80;;;16.30;;
12271;SDS011;6198;51.446;6.698;2023-05-31T06:14:33;26.63;;;16.00;;
12271;SDS011;6198;51.446;6.698;2023-05-31T06:16:59;22.20;;;12.93;;
12271;SDS011;6198;51.446;6.698;2023-05-31T06:19:25;24.73;;;12.70;;
12271;SDS011;6198;51.446;6.698;2023-05-31T06:21:51;22.50;;;12.37;;
12271;SDS011;6198;51.446;6.698;2023-05-31T06:24:18;15.07;;;10.47;;
12271;SDS011;6198;51.446;6.698;2023-05-31T06:26:44;15.53;;;11.03;;
12271;SDS011;6198;51.446;6.698;2023-05-31T06:29:10;17.60;;;10.20;;
12271;SDS011;6198;51.446;6.698;2023-05-31T06:31:36;19.13;;;11.07;;
12271;SDS011;6198;51.446;6.698;2023-05-31T06:34:04;16.63;;;10.20;;
12271;SDS011;6198;51.446;6.698;2023-05-31T06:36:29;13.67;;;9.60;;
12271;SDS011;6198;51.446;6.698;2023-05-31T06:38:56;17.80;;;11.03;;
12271;SDS011;6198;51.446;6.698;2023-05-31T06:41:22;16.03;;;10.10;;
12271;SDS011;6198;51.446;6.698;2023-05-31T06:43:48;17.60;;;11.63;;
12271;SDS011;6198;51.446;6.698;2023-05-31T06:46:14;16.37;;;9.87;;
12271;SDS011;6198;51.446;6.698;2023-05-31T06:48:40;16.47;;;9.90;;
12271;SDS011;6198;51.446;6.698;2023-05-31T06:51:06;19.33;;;10.40;;
12271;SDS011;6198;51.446;6.698;2023-05-31T06:53:32;18.00;;;9.93;;
12271;SDS011;6198;51.446;6.698;2023-05-31T06:55:58;16.30;;;9.90;;
12271;SDS011;6198;51.446;6.698;2023-05-31T06:58:26;16.67;;;10.23;;
12271;SDS011;6198;51.446;6.698;2023-05-31T07:00:55;16.10;;;9.47;;
12271;SDS011;6198;51.446;6.698;2023-05-31T07:03:21;11.63;;;9.00;;
12271;SDS011;6198;51.446;6.698;2023-05-31T07:05:47;17.17;;;10.30;;
12271;SDS011;6198;51.446;6.698;2023-05-31T07:08:13;13.00;;;9.03;;
12271;SDS011;6198;51.446;6.698;2023-05-31T07:10:42;12.40;;;8.60;;
12271;SDS011;6198;51.446;6.698;2023-05-31T07:13:10;17.03;;;10.17;;
12271;SDS011;6198;51.446;6.698;2023-05-31T07:15:36;18.13;;;8.93;;
12271;SDS011;6198;51.446;6.698;2023-05-31T07:18:02;23.13;;;9.27;;
12271;SDS011;6198;51.446;6.698;2023-05-31T07:20:28;15.83;;;8.13;;
12271;SDS011;6198;51.446;6.698;2023-05-31T07:22:54;13.37;;;8.10;;
12271;SDS011;6198;51.446;6.698;2023-05-31T07:25:20;16.93;;;8.57;;
12271;SDS011;6198;51.446;6.698;2023-05-31T07:27:46;18.20;;;8.33;;
12271;SDS011;6198;51.446;6.698;2023-05-31T07:30:12;13.23;;;7.17;;
12271;SDS011;6198;51.446;6.698;2023-05-31T07:32:38;20.10;;;7.80;;
12271;SDS011;6198;51.446;6.698;2023-05-31T07:35:05;18.23;;;8.20;;
12271;SDS011;6198;51.446;6.698;2023-05-31T07:37:31;12.93;;;7.77;;
12271;SDS011;6198;51.446;6.698;2023-05-31T07:39:57;13.83;;;7.73;;
12271;SDS011;6198;51.446;6.698;2023-05-31T07:42:23;11.87;;;7.43;;
12271;SDS011;6198;51.446;6.698;2023-05-31T07:44:49;16.00;;;8.27;;
12271;SDS011;6198;51.446;6.698;2023-05-31T07:47:16;12.37;;;7.47;;
12271;SDS011;6198;51.446;6.698;2023-05-31T07:49:42;18.57;;;8.50;;
12271;SDS011;6198;51.446;6.698;2023-05-31T07:52:08;13.07;;;7.80;;
12271;SDS011;6198;51.446;6.698;2023-05-31T07:54:34;14.70;;;7.70;;
12271;SDS011;6198;51.446;6.698;2023-05-31T07:57:00;16.33;;;6.93;;
12271;SDS011;6198;51.446;6.698;2023-05-31T07:59:26;17.33;;;7.97;;
12271;SDS011;6198;51.446;6.698;2023-05-31T08:01:52;13.90;;;7.70;;
12271;SDS011;6198;51.446;6.698;2023-05-31T08:04:18;15.50;;;7.53;;
12271;SDS011;6198;51.446;6.698;2023-05-31T08:06:44;11.90;;;7.10;;
12271;SDS011;6198;51.446;6.698;2023-05-31T08:09:10;15.97;;;7.93;;
12271;SDS011;6198;51.446;6.698;2023-05-31T08:11:36;17.83;;;7.60;;
12271;SDS011;6198;51.446;6.698;2023-05-31T08:14:03;16.43;;;7.10;;
12271;SDS011;6198;51.446;6.698;2023-05-31T08:16:29;12.37;;;6.43;;
12271;SDS011;6198;51.446;6.698;2023-05-31T08:18:55;11.93;;;6.87;;
12271;SDS011;6198;51.446;6.698;2023-05-31T08:21:21;11.47;;;6.43;;
12271;SDS011;6198;51.446;6.698;2023-05-31T08:23:47;14.50;;;6.63;;
12271;SDS011;6198;51.446;6.698;2023-05-31T08:26:13;12.17;;;6.73;;
12271;SDS011;6198;51.446;6.698;2023-05-31T08:28:39;13.47;;;6.47;;
12271;SDS011;6198;51.446;6.698;2023-05-31T08:31:05;15.10;;;6.40;;
12271;SDS011;6198;51.446;6.698;2023-05-31T08:33:32;13.60;;;6.20;;
12271;SDS011;6198;51.446;6.698;2023-05-31T08:35:58;7.83;;;5.40;;
12271;SDS011;6198;51.446;6.698;2023-05-31T08:38:27;12.50;;;6.50;;
12271;SDS011;6198;51.446;6.698;2023-05-31T08:40:57;15.67;;;6.40;;
12271;SDS011;6198;51.446;6.698;2023-05-31T08:43:23;9.50;;;5.57;;
12271;SDS011;6198;51.446;6.698;2023-05-31T08:45:51;11.53;;;6.30;;
12271;SDS011;6198;51.446;6.698;2023-05-31T08:48:21;9.83;;;5.60;;
12271;SDS011;6198;51.446;6.698;2023-05-31T08:50:50;7.77;;;5.57;;
12271;SDS011;6198;51.446;6.698;2023-05-31T08:53:17;9.33;;;5.10;;
12271;SDS011;6198;51.446;6.698;2023-05-31T08:55:44;11.97;;;5.83;;
12271;SDS011;6198;51.446;6.698;2023-05-31T08:58:11;9.77;;;5.67;;
12271;SDS011;6198;51.446;6.698;2023-05-31T09:00:37;11.97;;;5.33;;
12271;SDS011;6198;51.446;6.698;2023-05-31T09:03:06;9.43;;;5.47;;
12271;SDS011;6198;51.446;6.698;2023-05-31T09:05:32;10.73;;;5.07;;
12271;SDS011;6198;51.446;6.698;2023-05-31T09:07:59;10.17;;;4.87;;
12271;SDS011;6198;51.446;6.698;2023-05-31T09:10:25;11.77;;;5.70;;
12271;SDS011;6198;51.446;6.698;2023-05-31T09:12:51;6.13;;;4.53;;
12271;SDS011;6198;51.446;6.698;2023-05-31T09:15:18;11.20;;;4.73;;
12271;SDS011;6198;51.446;6.698;2023-05-31T09:17:47;10.80;;;5.07;;
12271;SDS011;6198;51.446;6.698;2023-05-31T09:20:13;11.57;;;4.70;;
12271;SDS011;6198;51.446;6.698;2023-05-31T09:22:39;7.10;;;4.33;;
12271;SDS011;6198;51.446;6.698;2023-05-31T09:25:05;9.07;;;4.30;;
12271;SDS011;6198;51.446;6.698;2023-05-31T09:27:38;6.53;;;3.67;;
12271;SDS011;6198;51.446;6.698;2023-05-31T09:30:10;12.10;;;5.23;;
12271;SDS011;6198;51.446;6.698;2023-05-31T09:32:37;14.70;;;4.57;;
12271;SDS011;6198;51.446;6.698;2023-05-31T09:35:16;8.10;;;4.10;;
12271;SDS011;6198;51.446;6.698;2023-05-31T09:37:43;15.10;;;4.90;;
12271;SDS011;6198;51.446;6.698;2023-05-31T09:40:09;8.03;;;4.47;;
12271;SDS011;6198;51.446;6.698;2023-05-31T09:42:35;7.43;;;4.20;;
12271;SDS011;6198;51.446;6.698;2023-05-31T09:45:01;7.17;;;3.33;;
12271;SDS011;6198;51.446;6.698;2023-05-31T09:47:29;13.10;;;4.00;;
12271;SDS011;6198;51.446;6.698;2023-05-31T09:49:55;10.67;;;4.00;;
12271;SDS011;6198;51.446;6.698;2023-05-31T09:52:28;9.17;;;4.13;;
12271;SDS011;6198;51.446;6.698;2023-05-31T09:55:04;8.53;;;4.17;;
12271;SDS011;6198;51.446;6.698;2023-05-31T09:57:30;8.87;;;3.93;;
12271;SDS011;6198;51.446;6.698;2023-05-31T10:00:00;7.20;;;3.93;;
12271;SDS011;6198;51.446;6.698;2023-05-31T10:02:29;11.90;;;4.27;;
12271;SDS011;6198;51.446;6.698;2023-05-31T10:04:55;7.10;;;3.63;;
12271;SDS011;6198;51.446;6.698;2023-05-31T10:07:22;9.53;;;3.50;;
12271;SDS011;6198;51.446;6.698;2023-05-31T10:09:48;10.33;;;3.40;;
12271;SDS011;6198;51.446;6.698;2023-05-31T10:12:15;6.40;;;3.57;;
12271;SDS011;6198;51.446;6.698;2023-05-31T10:14:43;8.00;;;3.40;;
12271;SDS011;6198;51.446;6.698;2023-05-31T10:17:12;11.40;;;3.27;;
12271;SDS011;6198;51.446;6.698;2023-05-31T10:19:40;16.73;;;4.00;;
12271;SDS011;6198;51.446;6.698;2023-05-31T10:22:07;8.53;;;3.20;;
12271;SDS011;6198;51.446;6.698;2023-05-31T10:24:50;6.83;;;3.20;;
12271;SDS011;6198;51.446;6.698;2023-05-31T10:29:51;12.17;;;3.60;;
12271;SDS011;6198;51.446;6.698;2023-05-31T10:32:19;4.60;;;2.97;;
12271;SDS011;6198;51.446;6.698;2023-05-31T10:34:45;9.73;;;3.57;;
12271;SDS011;6198;51.446;6.698;2023-05-31T10:37:11;9.17;;;3.37;;
12271;SDS011;6198;51.446;6.698;2023-05-31T10:47:19;6.50;;;3.33;;
12271;SDS011;6198;51.446;6.698;2023-05-31T10:49:45;11.70;;;3.83;;
12271;SDS011;6198;51.446;6.698;2023-05-31T10:52:12;10.20;;;3.50;;
12271;SDS011;6198;51.446;6.698;2023-05-31T10:54:39;5.33;;;2.90;;
12271;SDS011;6198;51.446;6.698;2023-05-31T10:57:05;8.67;;;3.17;;
12271;SDS011;6198;51.446;6.698;2023-05-31T10:59:41;6.83;;;3.33;;
12271;SDS011;6198;51.446;6.698;2023-05-31T11:02:11;9.53;;;3.73;;
12271;SDS011;6198;51.446;6.698;2023-05-31T11:04:37;6.80;;;3.63;;
12271;SDS011;6198;51.446;6.698;2023-05-31T11:07:10;5.17;;;3.10;;
12271;SDS011;6198;51.446;6.698;2023-05-31T11:09:38;4.97;;;2.97;;
12271;SDS011;6198;51.446;6.698;2023-05-31T11:12:04;8.53;;;3.17;;
12271;SDS011;6198;51.446;6.698;2023-05-31T11:14:31;7.63;;;2.87;;
12271;SDS011;6198;51.446;6.698;2023-05-31T11:19:29;9.63;;;3.77;;
12271;SDS011;6198;51.446;6.698;2023-05-31T11:21:56;16.63;;;3.97;;
12271;SDS011;6198;51.446;6.698;2023-05-31T11:24:34;4.30;;;3.00;;
12271;SDS011;6198;51.446;6.698;2023-05-31T11:27:02;6.00;;;3.17;;
12271;SDS011;6198;51.446;6.698;2023-05-31T11:32:10;7.10;;;3.33;;
12271;SDS011;6198;51.446;6.698;2023-05-31T11:34:47;10.07;;;2.93;;
12271;SDS011;6198;51.446;6.698;2023-05-31T11:37:14;5.63;;;3.17;;
12271;SDS011;6198;51.446;6.698;2023-05-31T11:39:43;5.77;;;2.90;;
12271;SDS011;6198;51.446;6.698;2023-05-31T11:42:10;4.17;;;2.93;;
12271;SDS011;6198;51.446;6.698;2023-05-31T11:44:40;10.20;;;3.13;;
12271;SDS011;6198;51.446;6.698;2023-05-31T11:47:07;8.50;;;3.23;;
12271;SDS011;6198;51.446;6.698;2023-05-31T11:49:35;5.60;;;2.87;;
12271;SDS011;6198;51.446;6.698;2023-05-31T11:52:01;5.87;;;3.13;;
12271;SDS011;6198;51.446;6.698;2023-05-31T11:54:28;5.73;;;2.97;;
12271;SDS011;6198;51.446;6.698;2023-05-31T11:57:02;5.03;;;2.73;;
12271;SDS011;6198;51.446;6.698;2023-05-31T11:59:31;8.53;;;3.10;;
12271;SDS011;6198;51.446;6.698;2023-05-31T12:01:58;6.72;;;3.30;;
12271;SDS011;6198;51.446;6.698;2023-05-31T12:04:31;11.47;;;4.17;;
12271;SDS011;6198;51.446;6.698;2023-05-31T12:06:57;10.87;;;3.10;;
12271;SDS011;6198;51.446;6.698;2023-05-31T12:09:27;7.77;;;3.20;;
12271;SDS011;6198;51.446;6.698;2023-05-31T12:11:53;10.10;;;3.83;;
12271;SDS011;6198;51.446;6.698;2023-05-31T12:14:21;5.77;;;3.30;;
12271;SDS011;6198;51.446;6.698;2023-05-31T12:16:47;5.93;;;3.10;;
12271;SDS011;6198;51.446;6.698;2023-05-31T12:19:16;6.57;;;2.53;;
12271;SDS011;6198;51.446;6.698;2023-05-31T12:21:42;6.60;;;2.87;;
12271;SDS011;6198;51.446;6.698;2023-05-31T12:24:12;6.03;;;2.97;;
12271;SDS011;6198;51.446;6.698;2023-05-31T12:26:39;6.73;;;2.80;;
12271;SDS011;6198;51.446;6.698;2023-05-31T12:29:05;11.53;;;3.00;;
12271;SDS011;6198;51.446;6.698;2023-05-31T12:31:33;6.90;;;3.47;;
12271;SDS011;6198;51.446;6.698;2023-05-31T12:34:05;8.17;;;2.90;;
12271;SDS011;6198;51.446;6.698;2023-05-31T12:36:38;5.50;;;2.50;;
12271;SDS011;6198;51.446;6.698;2023-05-31T12:39:08;4.33;;;2.60;;
12271;SDS011;6198;51.446;6.698;2023-05-31T12:41:34;8.90;;;3.17;;
12271;SDS011;6198;51.446;6.698;2023-05-31T12:44:01;5.53;;;2.87;;
12271;SDS011;6198;51.446;6.698;2023-05-31T12:46:27;6.17;;;3.37;;
12271;SDS011;6198;51.446;6.698;2023-05-31T12:48:52;7.23;;;3.17;;
12271;SDS011;6198;51.446;6.698;2023-05-31T12:51:22;5.13;;;3.03;;
12271;SDS011;6198;51.446;6.698;2023-05-31T12:53:48;9.23;;;3.37;;
12271;SDS011;6198;51.446;6.698;2023-05-31T12:56:14;9.30;;;3.43;;
12271;SDS011;6198;51.446;6.698;2023-05-31T12:58:41;6.93;;;3.07;;
12271;SDS011;6198;51.446;6.698;2023-05-31T13:01:07;8.33;;;2.97;;
12271;SDS011;6198;51.446;6.698;2023-05-31T13:03:33;6.07;;;2.93;;
12271;SDS011;6198;51.446;6.698;2023-05-31T13:05:59;6.33;;;2.83;;
12271;SDS011;6198;51.446;6.698;2023-05-31T13:08:25;6.70;;;3.20;;
12271;SDS011;6198;51.446;6.698;2023-05-31T13:10:51;6.93;;;2.60;;
12271;SDS011;6198;51.446;6.698;2023-05-31T13:13:18;6.17;;;2.87;;
12271;SDS011;6198;51.446;6.698;2023-05-31T13:15:44;7.97;;;3.30;;
12271;SDS011;6198;51.446;6.698;2023-05-31T13:18:11;5.90;;;2.93;;
12271;SDS011;6198;51.446;6.698;2023-05-31T13:20:37;8.10;;;3.50;;
12271;SDS011;6198;51.446;6.698;2023-05-31T13:23:03;7.10;;;3.30;;
12271;SDS011;6198;51.446;6.698;2023-05-31T13:25:33;8.60;;;3.43;;
12271;SDS011;6198;51.446;6.698;2023-05-31T13:27:59;5.70;;;3.07;;
12271;SDS011;6198;51.446;6.698;2023-05-31T13:30:25;5.90;;;2.90;;
12271;SDS011;6198;51.446;6.698;2023-05-31T13:32:52;6.33;;;3.20;;
12271;SDS011;6198;51.446;6.698;2023-05-31T13:35:18;4.37;;;2.70;;
12271;SDS011;6198;51.446;6.698;2023-05-31T13:37:44;7.00;;;2.67;;
12271;SDS011;6198;51.446;6.698;2023-05-31T13:40:10;7.97;;;3.30;;
12271;SDS011;6198;51.446;6.698;2023-05-31T13:42:36;6.97;;;3.37;;
12271;SDS011;6198;51.446;6.698;2023-05-31T13:45:02;7.10;;;3.60;;
12271;SDS011;6198;51.446;6.698;2023-05-31T13:47:28;7.90;;;3.10;;
12271;SDS011;6198;51.446;6.698;2023-05-31T13:49:55;6.93;;;3.50;;
12271;SDS011;6198;51.446;6.698;2023-05-31T13:52:20;7.80;;;2.80;;
12271;SDS011;6198;51.446;6.698;2023-05-31T13:54:47;8.57;;;3.07;;
12271;SDS011;6198;51.446;6.698;2023-05-31T13:57:13;6.37;;;3.00;;
12271;SDS011;6198;51.446;6.698;2023-05-31T13:59:39;7.13;;;3.17;;
12271;SDS011;6198;51.446;6.698;2023-05-31T14:02:06;5.20;;;2.83;;
12271;SDS011;6198;51.446;6.698;2023-05-31T14:04:32;4.50;;;2.90;;
12271;SDS011;6198;51.446;6.698;2023-05-31T14:06:58;7.53;;;3.60;;
12271;SDS011;6198;51.446;6.698;2023-05-31T14:09:24;9.03;;;3.13;;
12271;SDS011;6198;51.446;6.698;2023-05-31T14:11:51;9.03;;;3.33;;
12271;SDS011;6198;51.446;6.698;2023-05-31T14:14:17;7.67;;;3.40;;
12271;SDS011;6198;51.446;6.698;2023-05-31T14:16:43;4.53;;;3.13;;
12271;SDS011;6198;51.446;6.698;2023-05-31T14:19:09;5.87;;;3.23;;
12271;SDS011;6198;51.446;6.698;2023-05-31T14:21:35;5.83;;;3.60;;
12271;SDS011;6198;51.446;6.698;2023-05-31T14:24:01;6.50;;;3.43;;
12271;SDS011;6198;51.446;6.698;2023-05-31T14:26:28;18.57;;;4.50;;
12271;SDS011;6198;51.446;6.698;2023-05-31T14:28:54;12.20;;;4.03;;
12271;SDS011;6198;51.446;6.698;2023-05-31T14:31:20;7.07;;;3.17;;
12271;SDS011;6198;51.446;6.698;2023-05-31T14:33:46;4.00;;;3.03;;
12271;SDS011;6198;51.446;6.698;2023-05-31T14:36:12;6.60;;;3.30;;
12271;SDS011;6198;51.446;6.698;2023-05-31T14:38:38;5.73;;;3.40;;
12271;SDS011;6198;51.446;6.698;2023-05-31T14:41:04;6.20;;;3.60;;
12271;SDS011;6198;51.446;6.698;2023-05-31T14:43:30;5.27;;;3.33;;
12271;SDS011;6198;51.446;6.698;2023-05-31T14:45:57;7.03;;;3.30;;
12271;SDS011;6198;51.446;6.698;2023-05-31T14:48:23;7.37;;;3.33;;
12271;SDS011;6198;51.446;6.698;2023-05-31T14:50:49;4.80;;;3.13;;
12271;SDS011;6198;51.446;6.698;2023-05-31T14:53:15;5.53;;;3.30;;
12271;SDS011;6198;51.446;6.698;2023-05-31T14:55:41;17.10;;;3.50;;
12271;SDS011;6198;51.446;6.698;2023-05-31T14:58:07;7.77;;;3.10;;
12271;SDS011;6198;51.446;6.698;2023-05-31T15:00:33;6.70;;;3.97;;
12271;SDS011;6198;51.446;6.698;2023-05-31T15:02:59;12.63;;;3.83;;
12271;SDS011;6198;51.446;6.698;2023-05-31T15:05:25;7.03;;;3.40;;